RYR5963 FVFA-FAOR
Flight info
| Callsign | RYR5963 |
|---|---|
| Flight time | 1h 24m |
| Altitude | 37000 |
| Route | DCT EGMUM UB540 FNV/N0459F360 UB540 ETMIT UZ35 ITROL UQ44 AVAGO AVAGO1C |
| Aircraft | B738/M-SDE2E3FGHIRWXY/LB1 |
Departure
| Time | 2026-05-04 09:20 |
|---|---|
| Airport | Victoria Falls International Airport (FVFA) |
Arrival
| Time | 2026-05-04 10:45 |
|---|---|
| Airport | O.R. Tambo International Airport (FAOR) |
| Time | Latitude | Longitude | Altitude | Speed | Heading |
|---|---|---|---|---|---|
| 2026-05-04 08:35 | -18.09727 | 25.85154 | 3483 ft | 0 kts | 14° |
| 2026-05-04 09:11 | -18.09730 | 25.85154 | 3480 ft | 3 kts | 14° |
| 2026-05-04 09:11 | -18.09757 | 25.85146 | 3482 ft | 4 kts | 14° |
| 2026-05-04 09:11 | -18.09781 | 25.85140 | 3482 ft | 2 kts | 14° |
| 2026-05-04 09:12 | -18.09804 | 25.85138 | 3482 ft | 4 kts | 335° |
| 2026-05-04 09:12 | -18.09819 | 25.85156 | 3478 ft | 4 kts | 287° |
| 2026-05-04 09:14 | -18.09823 | 25.85169 | 3480 ft | 0 kts | 285° |
| 2026-05-04 09:15 | -18.09818 | 25.85152 | 3478 ft | 6 kts | 285° |
| 2026-05-04 09:15 | -18.09801 | 25.85090 | 3482 ft | 12 kts | 285° |
| 2026-05-04 09:15 | -18.09806 | 25.84996 | 3480 ft | 14 kts | 229° |
| 2026-05-04 09:15 | -18.09876 | 25.84965 | 3484 ft | 15 kts | 194° |
| 2026-05-04 09:17 | -18.10210 | 25.85060 | 3482 ft | 9 kts | 109° |
| 2026-05-04 09:18 | -18.10229 | 25.85120 | 3481 ft | 9 kts | 109° |
| 2026-05-04 09:18 | -18.10248 | 25.85179 | 3482 ft | 9 kts | 109° |
| 2026-05-04 09:18 | -18.10268 | 25.85249 | 3481 ft | 11 kts | 98° |
| 2026-05-04 09:18 | -18.10252 | 25.85324 | 3481 ft | 2 kts | 88° |
| 2026-05-04 09:19 | -18.10265 | 25.85343 | 3478 ft | 4 kts | 155° |
| 2026-05-04 09:19 | -18.10290 | 25.85332 | 3479 ft | 4 kts | 234° |
| 2026-05-04 09:19 | -18.10294 | 25.85301 | 3481 ft | 4 kts | 278° |
| 2026-05-04 09:19 | -18.10273 | 25.85238 | 3482 ft | 29 kts | 290° |
| 2026-05-04 09:20 | -18.10115 | 25.84783 | 3483 ft | 104 kts | 290° |
| 2026-05-04 09:20 | -18.09783 | 25.83830 | 3502 ft | 168 kts | 289° |
| 2026-05-04 09:20 | -18.09341 | 25.82542 | 3867 ft | 195 kts | 293° |
| 2026-05-04 09:20 | -18.08877 | 25.81132 | 4639 ft | 211 kts | 293° |
| 2026-05-04 09:21 | -18.08500 | 25.79649 | 5519 ft | 209 kts | 283° |
| 2026-05-04 09:21 | -18.08472 | 25.78146 | 6310 ft | 202 kts | 265° |
| 2026-05-04 09:21 | -18.08816 | 25.76679 | 6890 ft | 213 kts | 251° |
| 2026-05-04 09:21 | -18.09486 | 25.75287 | 7562 ft | 214 kts | 237° |
| 2026-05-04 09:22 | -18.10386 | 25.73990 | 7917 ft | 233 kts | 234° |
| 2026-05-04 09:22 | -18.11419 | 25.72658 | 8457 ft | 231 kts | 229° |
| 2026-05-04 09:22 | -18.12631 | 25.71641 | 9224 ft | 224 kts | 203° |
| 2026-05-04 09:22 | -18.14192 | 25.71367 | 9505 ft | 236 kts | 171° |
| 2026-05-04 09:23 | -18.15765 | 25.71975 | 9690 ft | 248 kts | 143° |
| 2026-05-04 09:23 | -18.17210 | 25.73025 | 10094 ft | 256 kts | 141° |
| 2026-05-04 09:23 | -18.18651 | 25.74124 | 10611 ft | 260 kts | 141° |
| 2026-05-04 09:23 | -18.20171 | 25.75274 | 10807 ft | 278 kts | 142° |
| 2026-05-04 09:25 | -18.34099 | 25.84431 | 13760 ft | 368 kts | 148° |
| 2026-05-04 09:25 | -18.36330 | 25.85799 | 14339 ft | 372 kts | 147° |
| 2026-05-04 09:26 | -18.38570 | 25.87167 | 14974 ft | 373 kts | 148° |
| 2026-05-04 09:26 | -18.40063 | 25.88078 | 15380 ft | 375 kts | 148° |
| 2026-05-04 09:26 | -18.42334 | 25.89462 | 15939 ft | 379 kts | 147° |
| 2026-05-04 09:26 | -18.44622 | 25.90857 | 16514 ft | 382 kts | 148° |
| 2026-05-04 09:27 | -18.46931 | 25.92265 | 17100 ft | 385 kts | 147° |
| 2026-05-04 09:27 | -18.49256 | 25.93683 | 17648 ft | 388 kts | 147° |
| 2026-05-04 09:27 | -18.51600 | 25.95114 | 18194 ft | 391 kts | 147° |
| 2026-05-04 09:27 | -18.53966 | 25.96558 | 18706 ft | 394 kts | 147° |
| 2026-05-04 09:28 | -18.56350 | 25.98013 | 19148 ft | 398 kts | 148° |
| 2026-05-04 09:28 | -18.58758 | 25.99484 | 19568 ft | 402 kts | 148° |
| 2026-05-04 09:28 | -18.61188 | 26.00970 | 19998 ft | 406 kts | 148° |
| 2026-05-04 09:28 | -18.63642 | 26.02470 | 20427 ft | 409 kts | 148° |
| 2026-05-04 09:29 | -18.66113 | 26.03980 | 20862 ft | 412 kts | 149° |
| 2026-05-04 09:29 | -18.68605 | 26.05503 | 21303 ft | 415 kts | 149° |
| 2026-05-04 09:29 | -18.71113 | 26.07037 | 21706 ft | 418 kts | 149° |
| 2026-05-04 09:29 | -18.73641 | 26.08584 | 22146 ft | 421 kts | 150° |
| 2026-05-04 09:30 | -18.76177 | 26.10137 | 22615 ft | 422 kts | 150° |
| 2026-05-04 09:30 | -18.78731 | 26.11701 | 22997 ft | 426 kts | 151° |
| 2026-05-04 09:30 | -18.81301 | 26.13276 | 23396 ft | 429 kts | 151° |
| 2026-05-04 09:30 | -18.83886 | 26.14860 | 23819 ft | 430 kts | 151° |
| 2026-05-04 09:31 | -18.86479 | 26.16450 | 24143 ft | 433 kts | 151° |
| 2026-05-04 09:31 | -18.89088 | 26.18051 | 24468 ft | 435 kts | 151° |
| 2026-05-04 09:31 | -18.91709 | 26.19659 | 24816 ft | 436 kts | 152° |
| 2026-05-04 09:31 | -18.94342 | 26.21276 | 25144 ft | 438 kts | 151° |
| 2026-05-04 09:32 | -18.96983 | 26.22897 | 25436 ft | 441 kts | 152° |
| 2026-05-04 09:32 | -18.99640 | 26.24530 | 25768 ft | 442 kts | 152° |
| 2026-05-04 09:34 | -19.18541 | 26.36158 | 27819 ft | 456 kts | 152° |
| 2026-05-04 09:34 | -19.21289 | 26.37852 | 28083 ft | 458 kts | 152° |
| 2026-05-04 09:34 | -19.24044 | 26.39551 | 28351 ft | 460 kts | 152° |
| 2026-05-04 09:34 | -19.26817 | 26.41260 | 28608 ft | 462 kts | 152° |
| 2026-05-04 09:35 | -19.29597 | 26.42976 | 28849 ft | 464 kts | 152° |
| 2026-05-04 09:35 | -19.32353 | 26.44677 | 29082 ft | 466 kts | 152° |
| 2026-05-04 09:35 | -19.35156 | 26.46408 | 29333 ft | 467 kts | 152° |
| 2026-05-04 09:35 | -19.37968 | 26.48145 | 29581 ft | 469 kts | 152° |
| 2026-05-04 09:37 | -19.57946 | 26.60474 | 30954 ft | 479 kts | 154° |
| 2026-05-04 09:37 | -19.60896 | 26.62124 | 31114 ft | 480 kts | 155° |
| 2026-05-04 09:38 | -19.63885 | 26.63718 | 31293 ft | 481 kts | 156° |
| 2026-05-04 09:38 | -19.66883 | 26.65296 | 31500 ft | 481 kts | 156° |
| 2026-05-04 09:38 | -19.69873 | 26.66876 | 31756 ft | 480 kts | 155° |
| 2026-05-04 09:38 | -19.72852 | 26.68464 | 32023 ft | 479 kts | 155° |
| 2026-05-04 09:39 | -19.75832 | 26.70065 | 32266 ft | 479 kts | 155° |
| 2026-05-04 09:39 | -19.78802 | 26.71669 | 32506 ft | 479 kts | 155° |
| 2026-05-04 09:39 | -19.81773 | 26.73278 | 32767 ft | 479 kts | 155° |
| 2026-05-04 09:39 | -19.84737 | 26.74884 | 33012 ft | 478 kts | 155° |
| 2026-05-04 09:40 | -19.87700 | 26.76489 | 33260 ft | 478 kts | 155° |
| 2026-05-04 09:40 | -19.90663 | 26.78095 | 33529 ft | 478 kts | 155° |
| 2026-05-04 09:40 | -19.93624 | 26.79699 | 33791 ft | 477 kts | 155° |
| 2026-05-04 09:40 | -19.96588 | 26.81288 | 34045 ft | 477 kts | 156° |
| 2026-05-04 09:41 | -19.99421 | 26.82694 | 34245 ft | 476 kts | 158° |
| 2026-05-04 09:42 | -20.20524 | 26.92671 | 35736 ft | 474 kts | 158° |
| 2026-05-04 09:43 | -20.23532 | 26.94117 | 35917 ft | 474 kts | 158° |
| 2026-05-04 09:43 | -20.26542 | 26.95564 | 36111 ft | 474 kts | 158° |
| 2026-05-04 09:43 | -20.29551 | 26.97010 | 36307 ft | 474 kts | 158° |
| 2026-05-04 09:43 | -20.32558 | 26.98456 | 36499 ft | 474 kts | 159° |
| 2026-05-04 09:44 | -20.35560 | 26.99900 | 36700 ft | 474 kts | 159° |
| 2026-05-04 09:44 | -20.38565 | 27.01345 | 36883 ft | 473 kts | 159° |
| 2026-05-04 09:44 | -20.41564 | 27.02789 | 37068 ft | 473 kts | 158° |
| 2026-05-04 09:46 | -20.62088 | 27.14082 | 37139 ft | 472 kts | 155° |
| 2026-05-04 09:46 | -20.67905 | 27.17299 | 37139 ft | 470 kts | 156° |
| 2026-05-04 09:47 | -20.73709 | 27.20507 | 37135 ft | 470 kts | 156° |
| 2026-05-04 09:49 | -20.97014 | 27.33428 | 37145 ft | 475 kts | 156° |
| 2026-05-04 09:51 | -21.18114 | 27.43195 | 37145 ft | 466 kts | 179° |
| 2026-05-04 09:51 | -21.24574 | 27.43781 | 37145 ft | 466 kts | 180° |
| 2026-05-04 09:52 | -21.31045 | 27.44325 | 37142 ft | 467 kts | 180° |
| 2026-05-04 09:52 | -21.37523 | 27.44916 | 37142 ft | 467 kts | 179° |
| 2026-05-04 09:53 | -21.43990 | 27.45536 | 37141 ft | 467 kts | 179° |
| 2026-05-04 09:53 | -21.50455 | 27.46164 | 37141 ft | 466 kts | 179° |
| 2026-05-04 09:54 | -21.56911 | 27.46791 | 37141 ft | 465 kts | 179° |
| 2026-05-04 09:54 | -21.63356 | 27.47416 | 37146 ft | 465 kts | 179° |
| 2026-05-04 09:55 | -21.69797 | 27.48041 | 37146 ft | 464 kts | 179° |
| 2026-05-04 09:55 | -21.76221 | 27.48665 | 37146 ft | 463 kts | 179° |
| 2026-05-04 09:56 | -21.82645 | 27.49288 | 37145 ft | 463 kts | 180° |
| 2026-05-04 09:56 | -21.89061 | 27.49912 | 37149 ft | 463 kts | 180° |
| 2026-05-04 09:57 | -21.95474 | 27.50536 | 37148 ft | 463 kts | 180° |
| 2026-05-04 09:57 | -22.01886 | 27.51161 | 37149 ft | 463 kts | 180° |
| 2026-05-04 09:58 | -22.08262 | 27.51782 | 37149 ft | 463 kts | 180° |
| 2026-05-04 09:58 | -22.14684 | 27.52409 | 37150 ft | 464 kts | 180° |
| 2026-05-04 10:00 | -22.40441 | 27.54928 | 37146 ft | 466 kts | 180° |
| 2026-05-04 10:04 | -22.85682 | 27.59376 | 37166 ft | 466 kts | 180° |
| 2026-05-04 10:04 | -22.92141 | 27.60014 | 37160 ft | 466 kts | 180° |
| 2026-05-04 10:05 | -22.98591 | 27.60651 | 37166 ft | 465 kts | 180° |
| 2026-05-04 10:05 | -23.05031 | 27.61288 | 37186 ft | 464 kts | 180° |
| 2026-05-04 10:06 | -23.11462 | 27.61925 | 37166 ft | 464 kts | 180° |
| 2026-05-04 10:06 | -23.17883 | 27.62561 | 37169 ft | 463 kts | 180° |
| 2026-05-04 10:08 | -23.36806 | 27.61308 | 37178 ft | 455 kts | 191° |
| 2026-05-04 10:08 | -23.39950 | 27.60955 | 37179 ft | 455 kts | 191° |
| 2026-05-04 10:08 | -23.46255 | 27.60274 | 37181 ft | 455 kts | 191° |
| 2026-05-04 10:09 | -23.52570 | 27.59608 | 37187 ft | 456 kts | 191° |
| 2026-05-04 10:09 | -23.56288 | 27.59218 | 37177 ft | 451 kts | 191° |
| 2026-05-04 10:10 | -23.59359 | 27.58901 | 37167 ft | 439 kts | 191° |
| 2026-05-04 10:10 | -23.62401 | 27.58582 | 37195 ft | 440 kts | 191° |
| 2026-05-04 10:10 | -23.68556 | 27.57926 | 37203 ft | 448 kts | 191° |
| 2026-05-04 10:11 | -23.74822 | 27.57257 | 37206 ft | 456 kts | 191° |
| 2026-05-04 10:11 | -23.81175 | 27.56584 | 37203 ft | 460 kts | 191° |
| 2026-05-04 10:12 | -23.87569 | 27.55909 | 37206 ft | 463 kts | 191° |
| 2026-05-04 10:12 | -23.93998 | 27.55229 | 37210 ft | 464 kts | 191° |
| 2026-05-04 10:13 | -24.00424 | 27.54549 | 37208 ft | 464 kts | 191° |
| 2026-05-04 10:13 | -24.06840 | 27.53868 | 37203 ft | 462 kts | 191° |
| 2026-05-04 10:14 | -24.13229 | 27.53189 | 37207 ft | 460 kts | 191° |
| 2026-05-04 10:16 | -24.37404 | 27.50611 | 37215 ft | 452 kts | 191° |
| 2026-05-04 10:16 | -24.43665 | 27.49941 | 37216 ft | 452 kts | 191° |
| 2026-05-04 10:17 | -24.49925 | 27.49271 | 37216 ft | 452 kts | 191° |
| 2026-05-04 10:19 | -24.75058 | 27.46574 | 37219 ft | 457 kts | 191° |
| 2026-05-04 10:19 | -24.81404 | 27.45891 | 36930 ft | 463 kts | 191° |
| 2026-05-04 10:20 | -24.84623 | 27.45543 | 36426 ft | 464 kts | 191° |
| 2026-05-04 10:20 | -24.87832 | 27.45199 | 35915 ft | 461 kts | 191° |
| 2026-05-04 10:20 | -24.91004 | 27.44860 | 35523 ft | 456 kts | 191° |
| 2026-05-04 10:20 | -24.94158 | 27.44522 | 35089 ft | 453 kts | 191° |
| 2026-05-04 10:21 | -24.97284 | 27.44184 | 34658 ft | 450 kts | 191° |
| 2026-05-04 10:21 | -25.00388 | 27.43848 | 34215 ft | 448 kts | 190° |
| 2026-05-04 10:21 | -25.03486 | 27.43521 | 33723 ft | 446 kts | 189° |
| 2026-05-04 10:21 | -25.06575 | 27.43409 | 33403 ft | 442 kts | 185° |
| 2026-05-04 10:22 | -25.12684 | 27.43518 | 32560 ft | 436 kts | 183° |
| 2026-05-04 10:22 | -25.15709 | 27.43601 | 32150 ft | 433 kts | 183° |
| 2026-05-04 10:22 | -25.18713 | 27.43673 | 31740 ft | 430 kts | 183° |
| 2026-05-04 10:23 | -25.21694 | 27.43731 | 31339 ft | 427 kts | 183° |
| 2026-05-04 10:23 | -25.24664 | 27.43779 | 30940 ft | 425 kts | 183° |
| 2026-05-04 10:25 | -25.44986 | 27.44046 | 27925 ft | 407 kts | 182° |
| 2026-05-04 10:25 | -25.47812 | 27.44083 | 27522 ft | 405 kts | 182° |
| 2026-05-04 10:25 | -25.50624 | 27.44120 | 27117 ft | 403 kts | 182° |
| 2026-05-04 10:25 | -25.53415 | 27.44157 | 26717 ft | 401 kts | 182° |
| 2026-05-04 10:26 | -25.56198 | 27.44193 | 26321 ft | 399 kts | 182° |
| 2026-05-04 10:26 | -25.58943 | 27.44230 | 25903 ft | 391 kts | 182° |
| 2026-05-04 10:26 | -25.61641 | 27.44266 | 25514 ft | 383 kts | 182° |
| 2026-05-04 10:26 | -25.64277 | 27.44301 | 25146 ft | 375 kts | 182° |
| 2026-05-04 10:27 | -25.66864 | 27.44336 | 24771 ft | 369 kts | 182° |
| 2026-05-04 10:27 | -25.69387 | 27.44495 | 24595 ft | 360 kts | 170° |
| 2026-05-04 10:27 | -25.71681 | 27.45517 | 24413 ft | 355 kts | 148° |
| 2026-05-04 10:27 | -25.73557 | 27.47321 | 24119 ft | 364 kts | 128° |
| 2026-05-04 10:28 | -25.75023 | 27.49675 | 23833 ft | 381 kts | 122° |
| 2026-05-04 10:28 | -25.76445 | 27.52212 | 23380 ft | 387 kts | 121° |
| 2026-05-04 10:28 | -25.77821 | 27.54742 | 22976 ft | 379 kts | 121° |
| 2026-05-04 10:28 | -25.79165 | 27.57219 | 22599 ft | 370 kts | 121° |
| 2026-05-04 10:29 | -25.80486 | 27.59634 | 22248 ft | 362 kts | 121° |
| 2026-05-04 10:29 | -25.81787 | 27.61994 | 21887 ft | 354 kts | 121° |
| 2026-05-04 10:29 | -25.83065 | 27.64299 | 21569 ft | 348 kts | 121° |
| 2026-05-04 10:29 | -25.84327 | 27.66566 | 21237 ft | 343 kts | 121° |
| 2026-05-04 10:30 | -25.85578 | 27.68811 | 20922 ft | 343 kts | 121° |
| 2026-05-04 10:30 | -25.86851 | 27.71093 | 20607 ft | 355 kts | 121° |
| 2026-05-04 10:30 | -25.88175 | 27.73468 | 20238 ft | 363 kts | 121° |
| 2026-05-04 10:30 | -25.89476 | 27.75800 | 19892 ft | 357 kts | 121° |
| 2026-05-04 10:31 | -25.90768 | 27.78117 | 19544 ft | 349 kts | 121° |
| 2026-05-04 10:31 | -25.92033 | 27.80385 | 19206 ft | 342 kts | 121° |
| 2026-05-04 10:32 | -25.99343 | 27.93529 | 17158 ft | 343 kts | 121° |
| 2026-05-04 10:33 | -26.00586 | 27.95766 | 16885 ft | 333 kts | 121° |
| 2026-05-04 10:33 | -26.01775 | 27.97907 | 16734 ft | 319 kts | 121° |
| 2026-05-04 10:33 | -26.02916 | 27.99962 | 16589 ft | 306 kts | 121° |
| 2026-05-04 10:33 | -26.04010 | 28.01932 | 16454 ft | 293 kts | 121° |
| 2026-05-04 10:34 | -26.05066 | 28.03838 | 16188 ft | 290 kts | 121° |
| 2026-05-04 10:34 | -26.06154 | 28.05804 | 15419 ft | 310 kts | 121° |
| 2026-05-04 10:34 | -26.07423 | 28.07786 | 14901 ft | 319 kts | 136° |
| 2026-05-04 10:34 | -26.09284 | 28.09100 | 14660 ft | 315 kts | 161° |
| 2026-05-04 10:35 | -26.11393 | 28.09611 | 14417 ft | 310 kts | 174° |
| 2026-05-04 10:35 | -26.13544 | 28.09857 | 14081 ft | 310 kts | 181° |
| 2026-05-04 10:35 | -26.15634 | 28.09437 | 13817 ft | 302 kts | 201° |
| 2026-05-04 10:35 | -26.17599 | 28.08651 | 13524 ft | 300 kts | 202° |
| 2026-05-04 10:36 | -26.19555 | 28.07835 | 13209 ft | 299 kts | 203° |
| 2026-05-04 10:36 | -26.21493 | 28.07025 | 12937 ft | 297 kts | 203° |
| 2026-05-04 10:36 | -26.23474 | 28.06369 | 12658 ft | 297 kts | 195° |
| 2026-05-04 10:36 | -26.25495 | 28.05913 | 12374 ft | 297 kts | 193° |
| 2026-05-04 10:37 | -26.27515 | 28.05494 | 12137 ft | 294 kts | 192° |
| 2026-05-04 10:37 | -26.29518 | 28.05089 | 11904 ft | 291 kts | 193° |
| 2026-05-04 10:37 | -26.31477 | 28.04698 | 11502 ft | 289 kts | 192° |
| 2026-05-04 10:37 | -26.33464 | 28.04301 | 11025 ft | 290 kts | 192° |
| 2026-05-04 10:39 | -26.41493 | 28.09005 | 9638 ft | 249 kts | 79° |
| 2026-05-04 10:39 | -26.40980 | 28.10828 | 9298 ft | 246 kts | 60° |
| 2026-05-04 10:39 | -26.40009 | 28.12346 | 9072 ft | 236 kts | 39° |
| 2026-05-04 10:40 | -26.38714 | 28.13457 | 8744 ft | 235 kts | 32° |
| 2026-05-04 10:40 | -26.37374 | 28.14504 | 8434 ft | 234 kts | 31° |
| 2026-05-04 10:40 | -26.36043 | 28.15540 | 8110 ft | 234 kts | 32° |
| 2026-05-04 10:40 | -26.34711 | 28.16582 | 8027 ft | 235 kts | 32° |
| 2026-05-04 10:41 | -26.33366 | 28.17635 | 7977 ft | 237 kts | 32° |
| 2026-05-04 10:41 | -26.32028 | 28.18689 | 7997 ft | 235 kts | 32° |
| 2026-05-04 10:41 | -26.30692 | 28.19741 | 7987 ft | 234 kts | 33° |
| 2026-05-04 10:41 | -26.29358 | 28.20749 | 7974 ft | 226 kts | 24° |
| 2026-05-04 10:42 | -26.27941 | 28.21323 | 7999 ft | 211 kts | 12° |
| 2026-05-04 10:42 | -26.26554 | 28.21731 | 8018 ft | 200 kts | 11° |
| 2026-05-04 10:42 | -26.25207 | 28.22119 | 7706 ft | 202 kts | 11° |
| 2026-05-04 10:42 | -26.23846 | 28.22507 | 7387 ft | 201 kts | 11° |
| 2026-05-04 10:43 | -26.22493 | 28.22924 | 7034 ft | 202 kts | 13° |
| 2026-05-04 10:44 | -26.14998 | 28.25270 | 5509 ft | 61 kts | 15° |
| 2026-05-04 10:45 | -26.14703 | 28.25323 | 5506 ft | 37 kts | 356° |
| 2026-05-04 10:45 | -26.14488 | 28.25228 | 5508 ft | 31 kts | 316° |
| 2026-05-04 10:45 | -26.14342 | 28.25068 | 5510 ft | 29 kts | 315° |
| 2026-05-04 10:45 | -26.14201 | 28.24921 | 5514 ft | 27 kts | 316° |
| 2026-05-04 10:46 | -26.14073 | 28.24781 | 5520 ft | 25 kts | 316° |
| 2026-05-04 10:46 | -26.13953 | 28.24649 | 5526 ft | 23 kts | 314° |
| 2026-05-04 10:46 | -26.13840 | 28.24525 | 5533 ft | 22 kts | 315° |
| 2026-05-04 10:46 | -26.13729 | 28.24405 | 5538 ft | 22 kts | 316° |
| 2026-05-04 10:47 | -26.13623 | 28.24288 | 5546 ft | 21 kts | 315° |
| 2026-05-04 10:47 | -26.13521 | 28.24174 | 5546 ft | 21 kts | 314° |
| 2026-05-04 10:47 | -26.13418 | 28.24067 | 5546 ft | 20 kts | 316° |
| 2026-05-04 10:47 | -26.13320 | 28.23961 | 5548 ft | 19 kts | 316° |
| 2026-05-04 10:49 | -26.13293 | 28.23394 | 5546 ft | 11 kts | 187° |
| 2026-05-04 10:49 | -26.13366 | 28.23384 | 5548 ft | 10 kts | 187° |
| 2026-05-04 10:50 | -26.13433 | 28.23375 | 5550 ft | 8 kts | 187° |
| 2026-05-04 10:51 | -26.13477 | 28.23279 | 5549 ft | 0 kts | 274° |